createdAt,value
2017-09-13T00:01:40.236Z,58.60
2017-09-13T00:04:08.540Z,58.60
2017-09-13T00:06:37.181Z,58.30
2017-09-13T00:09:05.662Z,58.30
2017-09-13T00:11:34.099Z,58.60
2017-09-13T00:14:02.336Z,60.00
2017-09-13T00:16:30.596Z,60.60
2017-09-13T00:18:58.877Z,60.10
2017-09-13T00:21:27.134Z,59.40
2017-09-13T00:23:55.492Z,58.30
2017-09-13T00:26:23.817Z,57.60
2017-09-13T00:28:52.076Z,57.70
2017-09-13T00:31:20.328Z,58.20
2017-09-13T00:33:48.617Z,57.70
2017-09-13T00:36:16.901Z,57.30
2017-09-13T00:38:45.147Z,57.60
2017-09-13T00:41:13.778Z,58.30
2017-09-13T00:43:42.258Z,59.10
2017-09-13T00:46:10.535Z,59.20
2017-09-13T00:48:39.032Z,59.20
2017-09-13T00:51:07.280Z,59.80
2017-09-13T00:53:35.542Z,61.20
2017-09-13T00:56:03.813Z,61.00
2017-09-13T00:58:32.153Z,60.40
2017-09-13T01:01:00.385Z,59.80
2017-09-13T01:03:28.683Z,59.50
2017-09-13T01:05:56.920Z,58.90
2017-09-13T01:08:25.460Z,58.20
2017-09-13T01:10:53.817Z,57.40
2017-09-13T01:13:22.115Z,57.20
2017-09-13T01:15:50.889Z,57.30
2017-09-13T01:18:19.182Z,57.30
2017-09-13T01:20:47.409Z,57.40
2017-09-13T01:23:15.693Z,58.50
2017-09-13T01:25:43.990Z,58.90
2017-09-13T01:28:12.259Z,58.30
2017-09-13T01:30:40.502Z,58.30
2017-09-13T01:33:08.883Z,58.50
2017-09-13T01:35:37.138Z,58.30
2017-09-13T01:38:05.405Z,59.50
2017-09-13T01:40:33.714Z,62.40
2017-09-13T01:43:01.963Z,62.80
2017-09-13T01:45:30.212Z,64.40
2017-09-13T01:47:59.820Z,65.30
2017-09-13T01:50:28.060Z,65.30
2017-09-13T01:52:56.297Z,65.50
2017-09-13T01:55:24.619Z,64.80
2017-09-13T01:57:52.890Z,63.50
2017-09-13T02:00:21.200Z,62.80
2017-09-13T02:02:49.509Z,63.00
2017-09-13T02:05:17.780Z,62.80
2017-09-13T02:07:46.032Z,62.40
2017-09-13T02:10:14.513Z,62.20
2017-09-13T02:12:42.784Z,62.20
2017-09-13T02:15:11.263Z,63.00
2017-09-13T02:17:39.672Z,63.10
2017-09-13T02:20:07.924Z,63.00
2017-09-13T02:22:36.859Z,64.40
2017-09-13T02:25:05.378Z,64.00
2017-09-13T02:27:33.648Z,62.20
2017-09-13T02:30:01.932Z,62.40
2017-09-13T02:32:30.578Z,62.60
2017-09-13T02:34:58.847Z,62.40
2017-09-13T02:37:27.125Z,62.40
2017-09-13T02:39:55.424Z,64.00
2017-09-13T02:42:23.675Z,64.20
2017-09-13T02:44:52.032Z,63.70
2017-09-13T02:47:20.336Z,63.70
2017-09-13T02:49:48.579Z,63.70
2017-09-13T02:52:16.834Z,63.10
2017-09-13T02:54:45.149Z,63.30
2017-09-13T02:57:13.407Z,62.20
2017-09-13T02:59:41.804Z,62.80
2017-09-13T03:02:10.097Z,62.10
2017-09-13T03:04:38.349Z,63.30
2017-09-13T03:07:06.632Z,64.00
2017-09-13T03:09:34.924Z,64.20
2017-09-13T03:12:03.199Z,64.90
2017-09-13T03:14:31.460Z,64.80
2017-09-13T03:16:59.880Z,65.10
2017-09-13T03:19:28.145Z,65.70
2017-09-13T03:21:56.409Z,66.60
2017-09-13T03:24:24.690Z,66.70
2017-09-13T03:26:52.937Z,66.60
2017-09-13T03:29:21.203Z,66.40
2017-09-13T03:31:49.512Z,65.80
2017-09-13T03:34:17.761Z,66.60
2017-09-13T03:36:46.016Z,67.10
2017-09-13T03:39:14.315Z,67.60
2017-09-13T03:41:42.563Z,67.80
2017-09-13T03:44:11.036Z,69.10
2017-09-13T03:46:39.289Z,68.70
2017-09-13T03:49:07.537Z,68.00
2017-09-13T03:51:36.039Z,67.10
2017-09-13T03:54:04.297Z,65.50
2017-09-13T03:56:32.546Z,65.30
2017-09-13T03:59:01.230Z,66.40
2017-09-13T04:01:29.877Z,67.30
2017-09-13T04:03:58.140Z,67.30
2017-09-13T04:06:26.469Z,67.30
2017-09-13T04:08:55.120Z,69.80
2017-09-13T04:11:23.352Z,69.80
2017-09-13T04:13:51.773Z,70.70
2017-09-13T04:16:20.023Z,70.00
2017-09-13T04:18:48.284Z,69.60
2017-09-13T04:21:16.563Z,68.50
2017-09-13T04:23:45.228Z,67.80
2017-09-13T04:26:13.899Z,67.40
2017-09-13T04:28:42.151Z,67.40
2017-09-13T04:31:10.421Z,67.40
2017-09-13T04:33:39.128Z,67.40
2017-09-13T04:36:07.780Z,67.40
2017-09-13T04:38:36.038Z,67.40
2017-09-13T04:41:04.340Z,68.50
2017-09-13T04:43:32.825Z,67.80
2017-09-13T04:46:01.088Z,67.40
2017-09-13T04:48:29.380Z,68.30
2017-09-13T04:50:57.884Z,69.20
2017-09-13T04:53:26.117Z,69.10
2017-09-13T04:55:54.402Z,68.90
2017-09-13T04:58:22.666Z,67.80
2017-09-13T05:00:50.927Z,68.50
2017-09-13T05:03:19.345Z,67.30
2017-09-13T05:05:47.593Z,66.90
2017-09-13T05:08:15.864Z,66.40
2017-09-13T05:10:44.216Z,65.10
2017-09-13T05:13:12.549Z,63.70
2017-09-13T05:15:41.224Z,61.70
2017-09-13T05:18:09.517Z,61.70
2017-09-13T05:20:37.780Z,61.20
2017-09-13T05:23:06.041Z,61.50
2017-09-13T05:25:34.368Z,61.00
2017-09-13T05:28:03.708Z,63.00
2017-09-13T05:30:31.944Z,63.00
2017-09-13T05:33:00.621Z,64.60
2017-09-13T05:35:29.307Z,65.30
2017-09-13T05:37:57.591Z,65.30
2017-09-13T05:40:26.149Z,64.90
2017-09-13T05:42:54.760Z,64.40
2017-09-13T05:45:23.423Z,67.10
2017-09-13T05:47:51.715Z,67.10
2017-09-13T05:50:20.360Z,64.90
2017-09-13T05:52:48.606Z,64.90
2017-09-13T05:55:17.115Z,64.40
2017-09-13T05:57:45.364Z,65.30
2017-09-13T06:00:13.612Z,64.80
2017-09-13T06:02:42.409Z,64.20
2017-09-13T06:05:11.060Z,64.00
2017-09-13T06:07:39.325Z,63.90
2017-09-13T06:10:07.748Z,64.20
2017-09-13T06:12:36.217Z,64.60
2017-09-13T06:15:04.865Z,65.10
2017-09-13T06:17:33.145Z,65.10
2017-09-13T06:20:01.403Z,64.60
2017-09-13T06:22:30.094Z,64.20
2017-09-13T06:24:58.350Z,64.20
2017-09-13T06:27:26.614Z,65.50
2017-09-13T06:29:54.888Z,65.50
2017-09-13T06:32:23.143Z,66.00
2017-09-13T06:34:51.452Z,65.50
2017-09-13T06:37:20.307Z,65.30
2017-09-13T06:39:50.698Z,65.30
2017-09-13T06:42:18.960Z,66.40
2017-09-13T06:44:47.232Z,66.60
2017-09-13T06:47:15.478Z,66.70
2017-09-13T06:49:44.125Z,66.70
2017-09-13T06:52:12.454Z,66.70
2017-09-13T06:54:40.720Z,66.70
2017-09-13T06:57:08.996Z,69.10
2017-09-13T06:59:37.340Z,69.60
2017-09-13T07:02:06.084Z,69.20
2017-09-13T07:04:34.543Z,70.30
2017-09-13T07:07:02.836Z,70.00
2017-09-13T07:09:31.089Z,69.10
2017-09-13T07:11:59.324Z,71.20
2017-09-13T07:14:27.588Z,81.80
2017-09-13T07:16:55.850Z,85.10
2017-09-13T07:19:26.268Z,86.30
2017-09-13T07:21:54.521Z,87.40
2017-09-13T07:24:22.808Z,88.50
2017-09-13T07:26:51.108Z,89.40
2017-09-13T07:29:19.368Z,90.10
2017-09-13T07:31:48.497Z,88.50
2017-09-13T07:34:17.632Z,89.20
2017-09-13T07:36:46.338Z,90.20
2017-09-13T07:39:14.983Z,90.20
2017-09-13T07:41:43.224Z,89.50
2017-09-13T07:44:11.487Z,90.10
2017-09-13T07:46:39.777Z,89.50
2017-09-13T07:49:08.067Z,89.50
2017-09-13T07:51:36.315Z,89.70
2017-09-13T07:54:04.736Z,90.10
2017-09-13T07:56:33.422Z,90.40
2017-09-13T07:59:01.668Z,90.50
2017-09-13T08:01:29.959Z,90.90
2017-09-13T08:03:58.753Z,91.00
2017-09-13T08:06:27.001Z,90.90
2017-09-13T08:08:55.404Z,91.40
2017-09-13T08:11:23.664Z,91.20
2017-09-13T08:13:51.897Z,91.60
2017-09-13T08:16:20.568Z,91.70
2017-09-13T08:18:49.257Z,91.20
2017-09-13T08:21:17.510Z,91.30
2017-09-13T08:23:45.777Z,91.90
2017-09-13T08:26:14.270Z,92.00
2017-09-13T08:28:42.721Z,91.90
2017-09-13T08:31:11.230Z,91.80
2017-09-13T08:33:41.741Z,91.70
2017-09-13T08:36:10.166Z,91.80
2017-09-13T08:38:38.812Z,91.70
2017-09-13T08:41:07.070Z,91.70
2017-09-13T08:43:35.406Z,91.70
2017-09-13T08:46:03.686Z,92.20
2017-09-13T08:48:31.983Z,92.00
2017-09-13T08:51:00.327Z,91.90
2017-09-13T08:53:28.710Z,92.10
2017-09-13T08:55:57.385Z,92.00
2017-09-13T08:58:28.695Z,91.90
2017-09-13T09:00:56.973Z,91.90
2017-09-13T09:03:25.232Z,92.50
2017-09-13T09:05:53.509Z,92.70
2017-09-13T09:08:21.849Z,93.30
2017-09-13T09:10:50.596Z,93.00
2017-09-13T09:13:19.400Z,91.80
2017-09-13T09:15:47.655Z,91.80
2017-09-13T09:18:15.941Z,91.00
2017-09-13T09:20:44.340Z,91.30
2017-09-13T09:23:12.680Z,91.90
2017-09-13T09:25:41.069Z,92.70
2017-09-13T09:28:09.743Z,92.10
2017-09-13T09:30:38.093Z,91.30
2017-09-13T09:33:06.365Z,90.90
2017-09-13T09:35:35.091Z,86.90
2017-09-13T09:38:03.397Z,86.90
2017-09-13T09:40:31.889Z,86.50
2017-09-13T09:43:00.720Z,85.60
2017-09-13T09:45:29.029Z,85.60
2017-09-13T09:47:57.327Z,83.80
2017-09-13T09:50:25.692Z,82.70
2017-09-13T09:52:53.958Z,82.00
2017-09-13T09:55:22.426Z,81.50
2017-09-13T09:57:50.837Z,81.10
2017-09-13T10:00:19.219Z,80.40
2017-09-13T10:02:48.087Z,79.80
2017-09-13T10:05:16.405Z,79.80
2017-09-13T10:07:44.732Z,79.30
2017-09-13T10:10:13.059Z,77.50
2017-09-13T10:12:41.333Z,76.60
2017-09-13T10:15:09.605Z,76.30
2017-09-13T10:17:37.934Z,76.30
2017-09-13T10:20:06.268Z,73.70
2017-09-13T10:22:35.314Z,68.30
2017-09-13T10:25:05.851Z,68.30
2017-09-13T10:27:34.527Z,67.60
2017-09-13T10:30:02.876Z,67.60
2017-09-13T10:32:31.197Z,65.70
2017-09-13T10:34:59.467Z,63.00
2017-09-13T10:37:27.819Z,63.10
2017-09-13T10:39:56.129Z,60.00
2017-09-13T10:42:24.372Z,59.10
2017-09-13T10:44:52.734Z,57.30
2017-09-13T10:47:21.234Z,56.00
2017-09-13T10:49:49.620Z,58.00
2017-09-13T10:52:17.979Z,57.40
2017-09-13T10:54:46.327Z,57.20
2017-09-13T10:57:14.952Z,60.00
2017-09-13T10:59:43.278Z,60.00
2017-09-13T11:02:11.566Z,57.90
2017-09-13T11:04:39.941Z,58.00
2017-09-13T11:07:08.417Z,57.60
2017-09-13T11:09:36.758Z,54.60
2017-09-13T11:12:05.253Z,52.00
2017-09-13T11:14:33.894Z,51.80
2017-09-13T11:17:02.128Z,51.80
2017-09-13T11:19:31.359Z,49.20
2017-09-13T11:21:59.588Z,49.20
2017-09-13T11:24:27.845Z,46.80
2017-09-13T11:26:56.084Z,44.60
2017-09-13T11:29:24.619Z,42.70
2017-09-13T11:31:52.880Z,40.90
2017-09-13T11:34:21.155Z,39.10
2017-09-13T11:36:49.373Z,37.60
2017-09-13T11:39:18.008Z,36.20
2017-09-13T11:41:46.248Z,36.20
2017-09-13T11:44:14.787Z,35.30
2017-09-13T11:46:43.056Z,34.40
2017-09-13T11:49:11.281Z,33.80
2017-09-13T11:51:39.605Z,32.80
2017-09-13T11:54:07.839Z,32.00
2017-09-13T11:56:36.085Z,31.30
2017-09-13T11:59:04.734Z,30.30
2017-09-13T12:01:32.967Z,30.40
2017-09-13T12:04:01.255Z,30.10
2017-09-13T12:06:29.491Z,30.10
2017-09-13T12:08:57.750Z,30.10
2017-09-13T12:11:26.100Z,30.10
2017-09-13T12:13:54.604Z,30.30
2017-09-13T12:16:22.832Z,30.10
2017-09-13T12:18:51.320Z,29.90
2017-09-13T12:21:20.073Z,29.90
2017-09-13T12:23:48.299Z,29.80
2017-09-13T12:26:16.573Z,29.80
2017-09-13T12:28:44.795Z,29.90
2017-09-13T12:31:13.520Z,30.30
2017-09-13T12:33:41.780Z,30.30
2017-09-13T12:36:10.016Z,30.40
2017-09-13T12:38:38.430Z,30.10
2017-09-13T12:41:06.662Z,29.90
2017-09-13T12:43:34.902Z,30.10
2017-09-13T12:46:03.176Z,29.80
2017-09-13T12:48:31.420Z,29.70
2017-09-13T12:51:00.048Z,29.90
2017-09-13T12:53:28.308Z,29.90
2017-09-13T12:55:56.623Z,29.70
2017-09-13T12:58:24.856Z,29.70
2017-09-13T13:00:53.179Z,29.60
2017-09-13T13:03:21.411Z,29.60
2017-09-13T13:05:49.651Z,29.60
2017-09-13T13:08:18.172Z,29.60
2017-09-13T13:10:46.409Z,29.60
2017-09-13T13:13:14.695Z,29.50
2017-09-13T13:15:43.342Z,29.50
2017-09-13T13:18:11.559Z,29.50
2017-09-13T13:20:40.068Z,29.60
2017-09-13T13:23:08.316Z,29.60
2017-09-13T13:25:36.946Z,29.60
2017-09-13T13:28:05.209Z,29.60
2017-09-13T13:30:33.456Z,29.60
2017-09-13T13:33:02.084Z,30.10
2017-09-13T13:35:30.552Z,30.10
2017-09-13T13:37:58.796Z,30.30
2017-09-13T13:40:27.421Z,29.80
2017-09-13T13:42:56.128Z,29.80
2017-09-13T13:45:24.359Z,29.60
2017-09-13T13:47:52.620Z,29.50
2017-09-13T13:50:21.067Z,29.50
2017-09-13T13:52:49.291Z,29.60
2017-09-13T13:55:17.556Z,29.50
2017-09-13T13:57:45.792Z,29.50
2017-09-13T14:00:14.043Z,29.50
2017-09-13T14:02:42.345Z,29.30
2017-09-13T14:05:10.643Z,29.20
2017-09-13T14:07:39.286Z,28.90
2017-09-13T14:10:07.577Z,28.90
2017-09-13T14:12:35.988Z,28.70
2017-09-13T14:15:04.226Z,28.60
2017-09-13T14:17:32.711Z,28.70
2017-09-13T14:20:00.985Z,28.60
2017-09-13T14:22:29.226Z,28.60
2017-09-13T14:24:57.500Z,28.50
2017-09-13T14:27:25.800Z,28.40
2017-09-13T14:29:54.041Z,28.00
2017-09-13T14:32:22.712Z,27.90
2017-09-13T14:34:51.984Z,27.90
2017-09-13T14:37:20.295Z,27.90
2017-09-13T14:39:49.774Z,28.30
2017-09-13T14:42:18.417Z,28.60
2017-09-13T14:44:46.687Z,28.60
2017-09-13T14:47:14.920Z,28.80
2017-09-13T14:49:43.552Z,28.30
2017-09-13T14:52:12.655Z,28.30
2017-09-13T14:54:41.068Z,28.50
2017-09-13T14:57:09.721Z,29.70
2017-09-13T14:59:37.988Z,29.70
2017-09-13T15:02:06.290Z,31.00
2017-09-13T15:04:34.529Z,31.70
2017-09-13T15:07:02.811Z,32.30
2017-09-13T15:09:31.051Z,33.10
2017-09-13T15:12:00.039Z,33.80
2017-09-13T15:14:28.575Z,33.80
2017-09-13T15:16:57.615Z,34.10
2017-09-13T15:19:26.270Z,34.50
2017-09-13T15:21:54.538Z,34.50
2017-09-13T15:24:22.788Z,34.70
2017-09-13T15:26:51.124Z,34.50
2017-09-13T15:29:19.348Z,35.30
2017-09-13T15:31:47.588Z,35.30
2017-09-13T15:34:15.866Z,35.30
2017-09-13T15:36:44.105Z,35.70
2017-09-13T15:39:12.352Z,35.60
2017-09-13T15:41:40.674Z,35.70
2017-09-13T15:44:08.960Z,36.30
2017-09-13T15:46:37.588Z,36.60
2017-09-13T15:49:05.832Z,36.60
2017-09-13T15:51:34.124Z,36.60
2017-09-13T15:54:02.616Z,37.50
2017-09-13T15:56:31.082Z,37.80
2017-09-13T15:58:59.805Z,38.70
2017-09-13T16:01:28.057Z,38.70
2017-09-13T16:03:56.343Z,39.30
2017-09-13T16:06:24.858Z,39.90
2017-09-13T16:08:53.152Z,40.20
2017-09-13T16:11:21.833Z,41.30
2017-09-13T16:13:50.457Z,41.90
2017-09-13T16:16:18.725Z,41.90
2017-09-13T16:18:46.978Z,42.10
2017-09-13T16:21:15.356Z,42.50
2017-09-13T16:23:44.000Z,42.80
2017-09-13T16:26:12.388Z,42.80
2017-09-13T16:28:40.623Z,43.00
2017-09-13T16:31:08.868Z,42.70
2017-09-13T16:33:37.180Z,43.10
2017-09-13T16:36:05.433Z,43.30
2017-09-13T16:38:33.926Z,43.40
2017-09-13T16:41:02.454Z,43.40
2017-09-13T16:43:30.808Z,43.10
2017-09-13T16:45:59.041Z,43.40
2017-09-13T16:48:27.287Z,43.70
2017-09-13T16:50:55.537Z,43.00
2017-09-13T16:53:23.777Z,43.40
2017-09-13T16:55:52.019Z,43.30
2017-09-13T16:58:20.860Z,43.30
2017-09-13T17:00:49.110Z,43.40
2017-09-13T17:03:17.969Z,43.40
2017-09-13T17:05:46.854Z,43.40
2017-09-13T17:08:15.093Z,43.70
2017-09-13T17:10:54.942Z,43.30
2017-09-13T17:13:34.077Z,43.40
2017-09-13T17:16:04.383Z,43.60
2017-09-13T17:18:34.381Z,43.40
2017-09-13T17:21:03.061Z,43.40
2017-09-13T17:23:33.656Z,43.40
2017-09-13T17:26:02.109Z,44.00
2017-09-13T17:28:40.539Z,34.70
2017-09-13T17:31:08.926Z,36.20
2017-09-13T17:33:38.721Z,37.60
2017-09-13T17:36:11.589Z,38.40
2017-09-13T17:38:46.153Z,44.10
2017-09-13T17:41:16.264Z,39.90
2017-09-13T17:43:45.605Z,40.90
2017-09-13T17:46:17.043Z,41.20
2017-09-13T17:48:46.108Z,41.20
2017-09-13T17:51:15.607Z,45.00
2017-09-13T17:53:44.183Z,41.80
2017-09-13T17:56:13.288Z,43.40
2017-09-13T17:58:42.327Z,45.50
2017-09-13T18:01:11.019Z,43.30
2017-09-13T18:03:39.907Z,48.00
2017-09-13T18:06:09.856Z,44.10
2017-09-13T18:08:39.338Z,44.40
2017-09-13T18:11:08.683Z,45.20
2017-09-13T18:13:37.865Z,46.20
2017-09-13T18:16:06.156Z,49.30
2017-09-13T18:18:34.640Z,46.40
2017-09-13T18:21:02.881Z,45.60
2017-09-13T18:23:31.176Z,47.00
2017-09-13T18:25:59.789Z,46.80
2017-09-13T18:28:28.169Z,47.50
2017-09-13T18:30:58.204Z,48.70
2017-09-13T18:33:27.311Z,48.00
2017-09-13T18:35:56.207Z,48.00
2017-09-13T18:38:24.485Z,50.50
2017-09-13T18:40:56.797Z,47.40
2017-09-13T18:43:25.071Z,48.30
2017-09-13T18:45:53.318Z,49.20
2017-09-13T18:48:21.596Z,48.10
2017-09-13T18:50:49.869Z,49.30
2017-09-13T18:53:18.340Z,50.40
2017-09-13T18:55:46.646Z,48.90
2017-09-13T18:58:14.924Z,46.50
2017-09-13T19:00:43.610Z,47.50
2017-09-13T19:03:12.587Z,47.50
2017-09-13T19:05:40.905Z,47.30
2017-09-13T19:08:11.181Z,48.00
2017-09-13T19:10:40.960Z,47.80
2017-09-13T19:13:10.294Z,46.40
2017-09-13T19:15:39.056Z,47.70
2017-09-13T19:18:07.413Z,48.00
2017-09-13T19:20:35.666Z,49.00
2017-09-13T19:23:05.130Z,49.60
2017-09-13T19:25:33.438Z,46.80
2017-09-13T19:28:01.720Z,47.50
2017-09-13T19:30:29.964Z,46.40
2017-09-13T19:33:00.009Z,46.70
2017-09-13T19:35:28.342Z,47.50
2017-09-13T19:37:56.592Z,48.90
2017-09-13T19:40:24.853Z,47.30
2017-09-13T19:42:53.121Z,47.30
2017-09-13T19:45:21.362Z,48.40
2017-09-13T19:47:50.430Z,47.80
2017-09-13T19:50:19.148Z,47.70
2017-09-13T19:52:47.487Z,47.80
2017-09-13T19:55:15.741Z,48.30
2017-09-13T19:57:43.977Z,47.80
2017-09-13T20:00:12.377Z,48.40
2017-09-13T20:02:40.661Z,49.20
2017-09-13T20:05:08.936Z,50.10
2017-09-13T20:07:37.189Z,50.80
2017-09-13T20:10:05.469Z,50.50
2017-09-13T20:12:33.971Z,49.90
2017-09-13T20:15:02.211Z,50.50
2017-09-13T20:17:30.465Z,49.90
2017-09-13T20:19:58.770Z,50.50
2017-09-13T20:22:27.014Z,50.20
2017-09-13T20:24:55.315Z,49.90
2017-09-13T20:27:23.964Z,49.80
2017-09-13T20:29:52.203Z,49.90
2017-09-13T20:32:20.458Z,50.20
2017-09-13T20:34:49.113Z,50.20
2017-09-13T20:37:17.753Z,51.10
2017-09-13T20:39:46.002Z,51.10
2017-09-13T20:42:14.420Z,50.90
2017-09-13T20:44:43.000Z,50.50
2017-09-13T20:47:11.240Z,50.80
2017-09-13T20:49:39.516Z,51.40
2017-09-13T20:52:08.345Z,50.50
2017-09-13T20:54:37.816Z,49.90
2017-09-13T20:57:06.727Z,50.40
2017-09-13T20:59:34.981Z,49.90
2017-09-13T21:02:03.483Z,50.20
2017-09-13T21:04:31.761Z,49.80
2017-09-13T21:07:00.271Z,50.50
2017-09-13T21:09:28.742Z,51.50
2017-09-13T21:11:57.012Z,52.10
2017-09-13T21:14:25.697Z,52.30
2017-09-13T21:16:54.232Z,52.30
2017-09-13T21:19:22.496Z,51.70
2017-09-13T21:21:50.748Z,51.20
2017-09-13T21:24:19.008Z,52.10
2017-09-13T21:26:47.313Z,52.70
2017-09-13T21:29:15.890Z,52.90
2017-09-13T21:31:44.541Z,53.80
2017-09-13T21:34:12.849Z,53.60
2017-09-13T21:36:41.105Z,54.10
2017-09-13T21:39:09.381Z,53.30
2017-09-13T21:41:38.542Z,54.50
2017-09-13T21:44:07.005Z,54.20
2017-09-13T21:46:35.249Z,53.20
2017-09-13T21:49:03.909Z,55.80
2017-09-13T21:51:32.183Z,55.80
2017-09-13T21:54:00.475Z,52.70
2017-09-13T21:56:29.156Z,51.50
2017-09-13T21:58:57.661Z,51.50
2017-09-13T22:01:26.767Z,51.50
2017-09-13T22:03:55.298Z,51.80
2017-09-13T22:06:23.601Z,52.40
2017-09-13T22:08:53.077Z,52.70
2017-09-13T22:11:21.324Z,52.40
2017-09-13T22:13:50.090Z,51.80
2017-09-13T22:16:18.927Z,52.10
2017-09-13T22:18:48.144Z,52.10
2017-09-13T22:21:16.406Z,52.10
2017-09-13T22:23:44.903Z,52.60
2017-09-13T22:26:13.149Z,53.20
2017-09-13T22:28:41.577Z,53.20
2017-09-13T22:31:09.826Z,53.80
2017-09-13T22:33:38.180Z,53.30
2017-09-13T22:36:06.464Z,53.30
2017-09-13T22:38:34.757Z,53.80
2017-09-13T22:41:03.073Z,53.80
2017-09-13T22:43:31.761Z,54.50
2017-09-13T22:46:00.044Z,54.50
2017-09-13T22:48:28.379Z,54.90
2017-09-13T22:50:56.620Z,54.80
2017-09-13T22:53:25.675Z,55.10
2017-09-13T22:55:54.360Z,55.70
2017-09-13T22:58:22.993Z,55.50
2017-09-13T23:00:51.234Z,55.50
2017-09-13T23:03:19.637Z,55.80
2017-09-13T23:05:48.475Z,56.10
2017-09-13T23:08:16.733Z,56.10
2017-09-13T23:10:45.005Z,56.30
2017-09-13T23:13:13.260Z,56.40
2017-09-13T23:15:41.525Z,56.40
2017-09-13T23:18:09.962Z,56.10
2017-09-13T23:20:38.629Z,56.60
2017-09-13T23:23:07.080Z,56.60
2017-09-13T23:25:36.198Z,56.70
2017-09-13T23:28:04.436Z,56.70
2017-09-13T23:30:32.690Z,56.40
2017-09-13T23:33:01.148Z,56.70
2017-09-13T23:35:29.415Z,57.00
2017-09-13T23:37:57.691Z,57.30
2017-09-13T23:40:25.992Z,57.90
2017-09-13T23:42:54.231Z,58.30
2017-09-13T23:45:22.479Z,58.50
2017-09-13T23:47:50.856Z,58.50
2017-09-13T23:50:19.107Z,58.60
2017-09-13T23:52:47.808Z,59.70
2017-09-13T23:55:16.080Z,59.70
2017-09-13T23:57:44.333Z,61.00
